Terminal Aerodrome Forecast
Issued by NWS Blacksburg, VA

Home | Current Version | Previous Version | Text Only | Print | Product List | Glossary On
Versions: 1 2 3 4 5 6 7 8 9 10 11 12 13 14 15 16 17 18 19 20 21 22 23 24 25 26 27 28 29 30 31 32 33 34 35 36 37 38 39 40 41 42 43
000
FTUS41 KRNK 212338
TAFLYH
TAF
KLYH 212338Z 2200/2224 27003KT 6SM BR SCT060 BKN120
     FM220400 02003KT 4SM BR SCT005 BKN090
     FM221430 29005KT P6SM BKN110
     FM221900 30007KT P6SM VCTS BKN060CB
      AMD NOT SKED=

USA.gov is the U.S. government's official web portal to all federal, state and local government web resources and services.